Time;durP1;ratioP1;P1;durP2;ratioP2;P2;SDS_P1;SDS_P2;PMS_P1;PMS_P2;Temp;Humidity;BMP_temperature;BMP_pressure;BME280_temperature;BME280_humidity;BME280_pressure;Samples;Min_cycle;Max_cycle;Signal;HPM_P1;HPM_P2
2022/08/27 00:00:17;;;;;;;;;;;17.00;99.90;;;;;;5010722;28;19928;-83
2022/08/27 00:02:43;;;;;;;;;;;17.00;99.90;;;;;;5012004;28;19928;-82
2022/08/27 00:05:10;;;;;;;;;;;16.90;99.90;;;;;;5035890;28;19943;-83
2022/08/27 00:07:35;;;;;;;;;;;16.90;99.90;;;;;;5028869;28;20293;-83
2022/08/27 00:10:01;;;;;;;;;;;16.90;99.90;;;;;;5011084;28;19936;-83
2022/08/27 00:12:27;;;;;;;;;;;16.90;99.90;;;;;;5025428;28;19921;-83
2022/08/27 00:14:52;;;;;;;;;;;16.90;99.90;;;;;;5027845;28;20377;-84
2022/08/27 00:17:18;;;;;;;;;;;16.90;99.90;;;;;;5010494;28;19932;-83
2022/08/27 00:19:43;;;;;;;;;;;16.90;99.90;;;;;;5036640;28;19989;-84
2022/08/27 00:22:09;;;;;;;;;;;16.90;99.90;;;;;;5028447;28;19925;-83
2022/08/27 00:24:35;;;;;;;;;;;16.90;99.90;;;;;;5030757;28;19921;-84
2022/08/27 00:27:01;;;;;;;;;;;16.90;99.90;;;;;;5013837;28;19925;-84
2022/08/27 00:29:27;;;;;;;;;;;16.90;99.90;;;;;;5037108;28;19974;-84
2022/08/27 00:31:54;;;;;;;;;;;16.90;99.90;;;;;;5048723;28;19921;-84
2022/08/27 00:34:20;;;;;;;;;;;16.90;99.90;;;;;;5033845;28;19995;-83
2022/08/27 00:36:46;;;;;;;;;;;16.90;99.90;;;;;;5012663;28;19928;-84
2022/08/27 00:39:11;;;;;;;;;;;16.90;99.90;;;;;;5031424;28;19921;-83
2022/08/27 00:41:38;;;;;;;;;;;17.00;99.90;;;;;;5017877;28;19944;-84
2022/08/27 00:44:05;;;;;;;;;;;16.90;99.90;;;;;;5021726;28;19928;-83
2022/08/27 00:46:40;;;;;;;;;;;16.90;99.90;;;;;;5030426;28;19917;-84
2022/08/27 00:49:18;;;;;;;;;;;16.90;99.90;;;;;;5029127;28;20008;-83
2022/08/27 00:51:45;;;;;;;;;;;16.90;99.90;;;;;;5012443;28;19925;-82
2022/08/27 00:54:11;;;;;;;;;;;16.90;99.90;;;;;;5018459;28;20383;-84
2022/08/27 00:56:38;;;;;;;;;;;16.90;99.90;;;;;;5034652;28;19964;-83
2022/08/27 00:59:04;;;;;;;;;;;16.90;99.90;;;;;;5029870;28;19921;-83
2022/08/27 01:01:31;;;;;;;;;;;16.80;99.90;;;;;;5010744;28;19925;-84
2022/08/27 01:03:58;;;;;;;;;;;16.90;99.90;;;;;;5026479;28;19925;-83
2022/08/27 01:06:27;;;;;;;;;;;16.80;99.90;;;;;;5029062;28;19920;-83
2022/08/27 01:08:57;;;;;;;;;;;16.90;99.90;;;;;;5027970;28;20399;-84
2022/08/27 01:11:24;;;;;;;;;;;16.80;99.90;;;;;;5010975;28;19921;-83
2022/08/27 01:13:50;;;;;;;;;;;16.80;99.90;;;;;;5014498;28;19925;-83
2022/08/27 01:16:17;;;;;;;;;;;16.90;99.90;;;;;;5036545;28;19921;-84
2022/08/27 01:18:42;;;;;;;;;;;16.90;99.90;;;;;;5023958;28;19921;-83
2022/08/27 01:21:23;;;;;;;;;;;16.70;99.90;;;;;;5004120;28;19921;-84
2022/08/27 01:23:58;;;;;;;;;;;16.70;99.90;;;;;;5010656;28;19921;-84
2022/08/27 01:26:24;;;;;;;;;;;16.70;99.90;;;;;;5027683;28;19928;-84
2022/08/27 01:28:50;;;;;;;;;;;16.70;99.90;;;;;;5011041;28;20026;-84
2022/08/27 01:31:15;;;;;;;;;;;16.60;99.90;;;;;;5011650;28;19928;-84
2022/08/27 01:33:52;;;;;;;;;;;16.60;99.90;;;;;;5026778;28;20377;-84
2022/08/27 01:36:17;;;;;;;;;;;16.50;99.90;;;;;;5027543;28;20027;-83
2022/08/27 01:38:43;;;;;;;;;;;16.50;99.90;;;;;;5028312;28;20036;-83
2022/08/27 01:41:08;;;;;;;;;;;16.50;99.90;;;;;;5029087;28;19921;-83
2022/08/27 01:43:34;;;;;;;;;;;16.50;99.90;;;;;;5010989;28;20496;-84
2022/08/27 01:45:59;;;;;;;;;;;16.40;99.90;;;;;;5011915;28;19921;-83
2022/08/27 01:48:25;;;;;;;;;;;16.40;99.90;;;;;;5032287;28;20457;-83
2022/08/27 01:50:50;;;;;;;;;;;16.30;99.90;;;;;;5010711;28;19943;-83
2022/08/27 01:53:18;;;;;;;;;;;16.20;99.90;;;;;;5011791;28;20450;-84
2022/08/27 01:55:47;;;;;;;;;;;16.30;99.90;;;;;;5011460;28;19921;-84
2022/08/27 01:58:12;;;;;;;;;;;16.20;99.90;;;;;;5028540;28;20969;-84
2022/08/27 02:00:40;;;;;;;;;;;16.20;99.90;;;;;;4993961;28;19960;-84
2022/08/27 02:03:07;;;;;;;;;;;16.10;99.90;;;;;;5037623;28;19905;-83
2022/08/27 02:05:33;;;;;;;;;;;16.10;99.90;;;;;;5043218;28;20008;-84
2022/08/27 02:07:58;;;;;;;;;;;16.10;99.90;;;;;;5028149;28;20352;-86
2022/08/27 02:10:32;;;;;;;;;;;16.00;99.90;;;;;;5011624;28;19967;-84
2022/08/27 02:12:58;;;;;;;;;;;16.00;99.90;;;;;;5004142;28;20773;-84
2022/08/27 02:15:23;;;;;;;;;;;16.00;99.90;;;;;;5014251;28;19921;-85
2022/08/27 02:17:49;;;;;;;;;;;16.00;99.90;;;;;;5030357;28;19929;-85
2022/08/27 02:20:16;;;;;;;;;;;15.90;99.90;;;;;;5023319;28;19921;-85
2022/08/27 02:22:41;;;;;;;;;;;16.00;99.90;;;;;;5030279;28;19921;-84
2022/08/27 02:25:08;;;;;;;;;;;16.00;99.90;;;;;;5031996;28;19970;-84
2022/08/27 02:27:33;;;;;;;;;;;15.90;99.90;;;;;;5030674;28;20395;-83
2022/08/27 02:29:59;;;;;;;;;;;15.90;99.90;;;;;;5032420;28;19925;-84
2022/08/27 02:32:25;;;;;;;;;;;15.90;99.90;;;;;;5034318;28;20031;-83
2022/08/27 02:34:50;;;;;;;;;;;15.90;99.90;;;;;;5031385;28;19924;-84
2022/08/27 02:37:16;;;;;;;;;;;15.90;99.90;;;;;;5012744;28;19927;-84
2022/08/27 02:39:41;;;;;;;;;;;15.90;99.90;;;;;;5030746;28;19964;-84
2022/08/27 02:42:07;;;;;;;;;;;15.90;99.90;;;;;;5029300;28;19952;-85
2022/08/27 02:44:34;;;;;;;;;;;15.80;99.90;;;;;;5031445;28;20420;-84
2022/08/27 02:47:01;;;;;;;;;;;15.80;99.90;;;;;;5032701;28;20008;-84
2022/08/27 02:49:27;;;;;;;;;;;15.80;99.90;;;;;;5031659;28;19921;-83
2022/08/27 02:51:54;;;;;;;;;;;15.80;99.90;;;;;;5015276;28;20357;-84
2022/08/27 02:54:20;;;;;;;;;;;15.80;99.90;;;;;;5031945;28;19986;-84
2022/08/27 02:56:45;;;;;;;;;;;15.70;99.90;;;;;;5006177;28;20759;-84
2022/08/27 02:59:10;;;;;;;;;;;15.70;99.90;;;;;;5037257;28;20373;-85
2022/08/27 03:01:36;;;;;;;;;;;15.70;99.90;;;;;;5012776;28;19974;-84
2022/08/27 03:04:02;;;;;;;;;;;15.70;99.90;;;;;;5031305;28;19925;-84
2022/08/27 03:06:27;;;;;;;;;;;15.70;99.90;;;;;;5014550;28;19925;-84
2022/08/27 03:08:53;;;;;;;;;;;15.70;99.90;;;;;;5012273;28;19956;-85
2022/08/27 03:11:18;;;;;;;;;;;15.70;99.90;;;;;;5004932;28;19917;-83
2022/08/27 03:13:47;;;;;;;;;;;15.60;99.90;;;;;;5012873;28;19921;-85
2022/08/27 03:16:12;;;;;;;;;;;15.60;99.90;;;;;;5032723;28;19924;-84
2022/08/27 03:18:38;;;;;;;;;;;15.70;99.90;;;;;;5029462;28;19921;-83
2022/08/27 03:21:04;;;;;;;;;;;15.60;99.90;;;;;;5001838;28;19929;-84
2022/08/27 03:23:33;;;;;;;;;;;15.60;99.90;;;;;;5008051;28;20522;-84
2022/08/27 03:25:59;;;;;;;;;;;15.60;99.90;;;;;;5035451;28;19925;-84
2022/08/27 03:28:26;;;;;;;;;;;15.60;99.90;;;;;;5033723;28;19925;-83
2022/08/27 03:30:53;;;;;;;;;;;15.60;99.90;;;;;;5031321;28;19928;-84
2022/08/27 03:33:19;;;;;;;;;;;15.70;99.90;;;;;;5022433;28;19928;-85
2022/08/27 03:35:46;;;;;;;;;;;15.70;99.90;;;;;;5016628;28;19920;-85
2022/08/27 03:38:12;;;;;;;;;;;15.70;99.90;;;;;;5059628;28;19985;-84
2022/08/27 03:40:42;;;;;;;;;;;15.70;99.90;;;;;;5052311;28;19921;-83
2022/08/27 03:43:08;;;;;;;;;;;15.70;99.90;;;;;;5038341;28;19921;-83
2022/08/27 03:45:33;;;;;;;;;;;15.80;99.90;;;;;;5038817;28;20009;-84
2022/08/27 03:47:59;;;;;;;;;;;15.70;99.90;;;;;;5034216;28;19948;-84
2022/08/27 03:50:24;;;;;;;;;;;15.70;99.90;;;;;;5041456;28;19952;-84
2022/08/27 03:52:50;;;;;;;;;;;15.70;99.90;;;;;;5037578;28;20000;-82
2022/08/27 03:55:15;;;;;;;;;;;15.80;99.90;;;;;;5012401;28;19921;-84
2022/08/27 03:57:41;;;;;;;;;;;15.70;99.90;;;;;;5027678;28;19968;-84
2022/08/27 04:00:11;;;;;;;;;;;15.70;99.90;;;;;;5010834;28;19964;-83
2022/08/27 04:02:37;;;;;;;;;;;15.70;99.90;;;;;;5031101;28;19966;-83
2022/08/27 04:05:03;;;;;;;;;;;15.80;99.90;;;;;;5031577;28;19929;-84
2022/08/27 04:07:28;;;;;;;;;;;15.80;99.90;;;;;;5029650;28;19943;-83
2022/08/27 04:09:54;;;;;;;;;;;15.80;99.90;;;;;;5029235;28;19924;-83
2022/08/27 04:12:19;;;;;;;;;;;15.80;99.90;;;;;;5027550;28;19924;-84
2022/08/27 04:14:45;;;;;;;;;;;15.80;99.90;;;;;;5031334;28;20285;-84
2022/08/27 04:17:10;;;;;;;;;;;15.70;99.90;;;;;;5044584;28;19967;-84
2022/08/27 04:19:36;;;;;;;;;;;15.70;99.90;;;;;;5014048;28;19925;-84
2022/08/27 04:22:03;;;;;;;;;;;15.70;99.90;;;;;;5007998;28;19976;-83
2022/08/27 04:24:30;;;;;;;;;;;15.70;99.90;;;;;;5030021;28;19921;-83
2022/08/27 04:26:55;;;;;;;;;;;15.60;99.90;;;;;;5011297;28;19925;-84
2022/08/27 04:29:21;;;;;;;;;;;15.60;99.90;;;;;;5030940;28;19920;-83
2022/08/27 04:31:47;;;;;;;;;;;15.70;99.90;;;;;;5008723;28;19953;-84
2022/08/27 04:34:12;;;;;;;;;;;15.60;99.90;;;;;;5013239;28;19925;-83
2022/08/27 04:36:37;;;;;;;;;;;15.50;99.90;;;;;;5019598;28;19990;-83
2022/08/27 04:39:03;;;;;;;;;;;15.50;99.90;;;;;;5035128;28;19928;-83
2022/08/27 04:41:32;;;;;;;;;;;15.50;99.90;;;;;;5031682;28;20308;-83
2022/08/27 04:44:00;;;;;;;;;;;15.50;99.90;;;;;;5032861;28;19936;-83
2022/08/27 04:46:30;;;;;;;;;;;15.40;99.90;;;;;;5012884;28;19921;-83
2022/08/27 04:48:57;;;;;;;;;;;15.40;99.90;;;;;;5029060;28;20292;-83
2022/08/27 04:51:22;;;;;;;;;;;15.40;99.90;;;;;;5011128;28;19983;-83
2022/08/27 04:53:48;;;;;;;;;;;15.50;99.90;;;;;;5012213;28;19960;-83
2022/08/27 04:56:20;;;;;;;;;;;15.40;99.90;;;;;;5027409;28;19921;-83
2022/08/27 04:58:45;;;;;;;;;;;15.50;99.90;;;;;;5017064;28;19984;-83
2022/08/27 05:01:18;;;;;;;;;;;15.50;99.90;;;;;;5011958;28;20040;-83
2022/08/27 05:03:43;;;;;;;;;;;15.50;99.90;;;;;;5012644;28;19921;-83
2022/08/27 05:06:09;;;;;;;;;;;15.50;99.90;;;;;;5008170;28;19932;-83
2022/08/27 05:08:34;;;;;;;;;;;15.60;99.90;;;;;;5030290;28;20344;-83
2022/08/27 05:11:00;;;;;;;;;;;15.60;99.90;;;;;;5045675;28;19909;-84
2022/08/27 05:13:28;;;;;;;;;;;15.60;99.90;;;;;;5021699;28;19925;-83
2022/08/27 05:15:58;;;;;;;;;;;15.60;99.90;;;;;;5010671;28;19921;-83
2022/08/27 05:18:27;;;;;;;;;;;15.60;99.90;;;;;;5007491;28;19947;-83
2022/08/27 05:20:53;;;;;;;;;;;15.70;99.90;;;;;;5029219;28;19924;-83
2022/08/27 05:23:19;;;;;;;;;;;15.70;99.90;;;;;;5015480;28;20043;-84
2022/08/27 05:25:46;;;;;;;;;;;15.70;99.90;;;;;;5020349;28;19917;-83
2022/08/27 05:28:12;;;;;;;;;;;15.70;99.90;;;;;;5026970;28;19972;-83
2022/08/27 05:30:40;;;;;;;;;;;15.80;99.90;;;;;;5027750;28;19921;-84
2022/08/27 05:33:06;;;;;;;;;;;15.80;99.90;;;;;;5021727;28;19921;-83
2022/08/27 05:35:32;;;;;;;;;;;15.90;99.90;;;;;;5033369;28;19964;-84
2022/08/27 05:37:58;;;;;;;;;;;15.90;99.90;;;;;;5030902;28;19983;-84
2022/08/27 05:40:24;;;;;;;;;;;16.00;99.90;;;;;;5030366;28;19928;-84
2022/08/27 05:42:50;;;;;;;;;;;16.00;99.90;;;;;;5029695;28;19921;-84
2022/08/27 05:45:18;;;;;;;;;;;16.10;99.90;;;;;;5028709;28;20015;-84
2022/08/27 05:47:47;;;;;;;;;;;16.20;99.90;;;;;;5031102;28;19921;-84
2022/08/27 05:50:12;;;;;;;;;;;16.20;99.90;;;;;;5029616;28;19928;-84
2022/08/27 05:52:38;;;;;;;;;;;16.40;99.90;;;;;;5035381;28;20281;-84
2022/08/27 05:55:04;;;;;;;;;;;16.30;99.90;;;;;;5033955;28;19925;-84
2022/08/27 05:57:32;;;;;;;;;;;16.40;99.90;;;;;;5015813;28;19948;-84
2022/08/27 06:02:42;;;;;;;;;;;16.40;99.90;;;;;;5034785;28;20016;-85
2022/08/27 06:05:08;;;;;;;;;;;16.50;99.90;;;;;;5035961;28;19927;-85
2022/08/27 06:07:34;;;;;;;;;;;16.60;99.90;;;;;;5020995;28;19921;-84
2022/08/27 06:10:00;;;;;;;;;;;16.70;99.90;;;;;;5017502;28;20066;-84
2022/08/27 06:12:25;;;;;;;;;;;16.60;99.90;;;;;;5029163;28;19928;-84
2022/08/27 06:14:51;;;;;;;;;;;16.70;99.90;;;;;;5015237;28;19921;-84
2022/08/27 06:17:16;;;;;;;;;;;16.80;99.90;;;;;;5013051;28;19921;-84
2022/08/27 06:19:42;;;;;;;;;;;16.90;99.90;;;;;;5030734;28;20377;-83
2022/08/27 06:22:08;;;;;;;;;;;16.90;99.90;;;;;;5035959;28;20280;-82
2022/08/27 06:24:34;;;;;;;;;;;17.00;99.90;;;;;;5039089;28;20300;-83
2022/08/27 06:27:00;;;;;;;;;;;17.00;99.90;;;;;;5013307;28;19921;-82
2022/08/27 06:29:26;;;;;;;;;;;17.10;99.90;;;;;;5026299;28;20284;-81
2022/08/27 06:31:53;;;;;;;;;;;17.20;99.90;;;;;;5016000;28;20288;-81
2022/08/27 06:34:19;;;;;;;;;;;17.20;99.90;;;;;;5030707;28;19931;-82
2022/08/27 06:36:44;;;;;;;;;;;17.30;99.90;;;;;;5013758;28;20016;-83
2022/08/27 06:39:12;;;;;;;;;;;17.30;99.90;;;;;;5022071;28;19927;-83
2022/08/27 06:41:38;;;;;;;;;;;17.40;99.90;;;;;;5014250;28;19991;-82
2022/08/27 06:44:03;;;;;;;;;;;17.40;99.90;;;;;;5045214;28;19905;-83
2022/08/27 06:46:29;;;;;;;;;;;17.50;99.90;;;;;;5038791;28;19935;-82
2022/08/27 06:48:56;;;;;;;;;;;17.60;99.90;;;;;;5014372;28;20281;-85
2022/08/27 06:51:24;;;;;;;;;;;17.60;99.90;;;;;;5003744;28;19922;-84
2022/08/27 06:53:51;;;;;;;;;;;17.70;99.90;;;;;;5002644;28;19921;-84
2022/08/27 06:56:16;;;;;;;;;;;17.80;99.90;;;;;;4999840;28;20065;-84
2022/08/27 06:58:42;;;;;;;;;;;17.70;99.90;;;;;;5023012;28;20020;-85
2022/08/27 07:01:29;;;;;;;;;;;17.80;99.90;;;;;;5021988;28;20003;-85
2022/08/27 07:03:57;;;;;;;;;;;17.90;99.90;;;;;;5005055;28;20284;-84
2022/08/27 07:06:23;;;;;;;;;;;17.90;99.90;;;;;;5028563;28;19928;-86
2022/08/27 07:08:48;;;;;;;;;;;17.90;99.90;;;;;;5001358;28;19975;-86
2022/08/27 07:11:14;;;;;;;;;;;18.00;99.90;;;;;;5017736;28;20023;-84
2022/08/27 07:13:40;;;;;;;;;;;18.00;99.90;;;;;;5020157;28;20418;-83
2022/08/27 07:16:10;;;;;;;;;;;18.10;99.90;;;;;;5015933;28;19928;-83
2022/08/27 07:18:37;;;;;;;;;;;18.10;99.90;;;;;;5016258;28;19947;-85
2022/08/27 07:21:03;;;;;;;;;;;18.20;99.90;;;;;;5005463;28;19935;-84
2022/08/27 07:23:29;;;;;;;;;;;18.20;99.90;;;;;;5006539;28;19921;-84
2022/08/27 07:25:54;;;;;;;;;;;18.30;99.90;;;;;;5027496;28;19927;-85
2022/08/27 07:28:20;;;;;;;;;;;18.40;99.90;;;;;;5005778;28;20300;-85
2022/08/27 07:30:46;;;;;;;;;;;18.40;99.90;;;;;;5025338;28;19928;-89
2022/08/27 07:33:11;;;;;;;;;;;18.50;99.90;;;;;;5029989;28;19920;-87
2022/08/27 07:35:37;;;;;;;;;;;18.60;99.90;;;;;;5028260;28;19921;-83
2022/08/27 07:38:02;;;;;;;;;;;18.50;99.90;;;;;;5009372;28;19920;-83
2022/08/27 07:40:28;;;;;;;;;;;18.70;99.90;;;;;;5000235;28;19933;-82
2022/08/27 07:45:46;;;;;;;;;;;18.80;99.90;;;;;;5009071;28;20392;-83
2022/08/27 07:48:11;;;;;;;;;;;18.80;99.90;;;;;;5037334;28;19921;-83
2022/08/27 07:50:37;;;;;;;;;;;18.80;99.90;;;;;;5002865;28;19927;-83
2022/08/27 07:53:02;;;;;;;;;;;18.80;99.90;;;;;;5023882;28;20369;-84
2022/08/27 07:55:28;;;;;;;;;;;18.90;99.90;;;;;;5024472;28;19917;-86
2022/08/27 07:57:53;;;;;;;;;;;18.90;99.90;;;;;;5007353;28;19921;-85
2022/08/27 08:00:20;;;;;;;;;;;18.90;99.90;;;;;;5028212;28;19925;-85
2022/08/27 08:02:46;;;;;;;;;;;18.90;99.90;;;;;;5010499;28;19944;-84
2022/08/27 08:05:12;;;;;;;;;;;18.90;99.90;;;;;;5009926;28;20369;-82
2022/08/27 08:07:38;;;;;;;;;;;19.00;99.90;;;;;;5032544;28;19925;-83
2022/08/27 08:10:05;;;;;;;;;;;19.00;99.90;;;;;;5028947;28;19924;-83
2022/08/27 08:12:30;;;;;;;;;;;19.00;99.90;;;;;;5011006;28;19927;-82
2022/08/27 08:14:56;;;;;;;;;;;19.00;99.90;;;;;;5028514;28;20381;-82
2022/08/27 08:17:23;;;;;;;;;;;19.00;99.90;;;;;;5037671;28;19940;-86
2022/08/27 08:19:49;;;;;;;;;;;19.00;99.90;;;;;;5029976;28;19925;-84
2022/08/27 08:22:14;;;;;;;;;;;19.00;99.90;;;;;;5018166;28;19929;-86
2022/08/27 08:24:40;;;;;;;;;;;19.10;99.90;;;;;;5030101;28;20320;-88
2022/08/27 08:27:05;;;;;;;;;;;19.10;99.90;;;;;;5030360;28;20285;-85
2022/08/27 08:29:34;;;;;;;;;;;19.10;99.90;;;;;;5020515;28;19921;-86
2022/08/27 08:31:59;;;;;;;;;;;19.10;99.90;;;;;;5016374;28;19972;-89
2022/08/27 08:34:28;;;;;;;;;;;19.20;99.90;;;;;;5027877;28;19912;-92
2022/08/27 08:36:53;;;;;;;;;;;19.20;99.90;;;;;;5043316;28;19920;-91
2022/08/27 08:39:19;;;;;;;;;;;19.20;99.90;;;;;;5033647;28;20336;-90
2022/08/27 08:41:49;;;;;;;;;;;19.20;99.90;;;;;;5012494;28;19979;-89
2022/08/27 08:44:35;;;;;;;;;;;19.30;99.90;;;;;;5032162;28;19975;-92
2022/08/27 08:47:04;;;;;;;;;;;19.30;99.90;;;;;;5033862;28;19928;-93
2022/08/27 08:49:35;;;;;;;;;;;19.30;99.90;;;;;;5015160;28;20016;-85
2022/08/27 08:52:07;;;;;;;;;;;19.30;99.90;;;;;;5009094;28;19928;-93
2022/08/27 08:54:33;;;;;;;;;;;19.30;99.90;;;;;;5037654;28;19920;-95
2022/08/27 08:57:17;;;;;;;;;;;19.30;99.90;;;;;;5013667;28;20004;-93
2022/08/27 08:59:44;;;;;;;;;;;19.40;99.90;;;;;;5016123;28;20598;-91
2022/08/27 09:02:11;;;;;;;;;;;19.40;99.90;;;;;;5020917;28;19974;-96
2022/08/27 09:04:36;;;;;;;;;;;19.40;99.90;;;;;;5038434;28;19989;-94
2022/08/27 09:07:07;;;;;;;;;;;19.40;99.90;;;;;;5044451;28;19964;-96
2022/08/27 09:09:37;;;;;;;;;;;19.50;99.90;;;;;;5035071;28;19920;-93
2022/08/27 09:12:14;;;;;;;;;;;19.50;99.90;;;;;;5039518;28;19921;-92
2022/08/27 09:14:48;;;;;;;;;;;19.50;99.90;;;;;;5029926;28;19979;-89
2022/08/27 09:17:14;;;;;;;;;;;19.50;99.90;;;;;;5046667;28;19921;-91
2022/08/27 09:19:39;;;;;;;;;;;19.50;99.90;;;;;;5039753;28;19920;-91
2022/08/27 09:22:10;;;;;;;;;;;19.50;99.90;;;;;;5058006;28;19921;-90
2022/08/27 09:24:46;;;;;;;;;;;19.50;99.90;;;;;;5041016;28;19956;-92
2022/08/27 09:27:13;;;;;;;;;;;19.50;99.90;;;;;;5023464;28;19956;-87
2022/08/27 09:29:50;;;;;;;;;;;19.50;99.90;;;;;;5021450;28;19936;-92
2022/08/27 09:32:20;;;;;;;;;;;19.50;99.90;;;;;;5032975;28;19931;-90
2022/08/27 09:34:45;;;;;;;;;;;19.70;99.90;;;;;;5021213;28;20024;-90
2022/08/27 09:37:21;;;;;;;;;;;19.70;99.90;;;;;;5007423;28;20241;-87
2022/08/27 09:40:03;;;;;;;;;;;19.80;99.90;;;;;;5007573;28;19925;-90
2022/08/27 09:42:37;;;;;;;;;;;19.80;99.90;;;;;;5012584;28;19936;-93
2022/08/27 09:45:14;;;;;;;;;;;19.90;99.90;;;;;;5017054;28;19932;-91
2022/08/27 09:47:45;;;;;;;;;;;20.00;99.90;;;;;;5017109;28;19928;-93
2022/08/27 09:50:11;;;;;;;;;;;20.10;99.90;;;;;;5028845;28;19984;-89
2022/08/27 09:52:50;;;;;;;;;;;20.20;99.90;;;;;;5034949;28;19974;-87
2022/08/27 09:55:45;;;;;;;;;;;20.30;99.90;;;;;;5030180;28;20337;-89
2022/08/27 09:58:25;;;;;;;;;;;20.40;99.90;;;;;;5019457;28;20441;-88
2022/08/27 10:01:05;;;;;;;;;;;20.40;99.90;;;;;;5023114;28;19941;-89
2022/08/27 10:03:31;;;;;;;;;;;20.40;99.90;;;;;;4995019;28;19925;-87
2022/08/27 10:05:57;;;;;;;;;;;20.40;99.90;;;;;;5012664;28;19967;-88
2022/08/27 10:08:38;;;;;;;;;;;20.30;99.90;;;;;;5032442;28;19929;-89
2022/08/27 10:11:08;;;;;;;;;;;20.30;99.90;;;;;;5031382;28;19967;-90
2022/08/27 10:13:53;;;;;;;;;;;20.30;99.90;;;;;;5007830;28;19927;-89
2022/08/27 10:16:37;;;;;;;;;;;20.30;99.90;;;;;;5014687;28;19921;-89
2022/08/27 10:19:11;;;;;;;;;;;20.30;99.90;;;;;;5013153;28;19921;-90
2022/08/27 10:21:47;;;;;;;;;;;20.30;99.90;;;;;;5014699;28;20361;-89
2022/08/27 10:24:31;;;;;;;;;;;20.30;99.90;;;;;;5033434;28;19928;-89
2022/08/27 10:26:57;;;;;;;;;;;20.30;99.90;;;;;;5014013;28;20388;-88
2022/08/27 10:29:39;;;;;;;;;;;20.30;99.90;;;;;;5032727;28;20002;-90
2022/08/27 10:32:10;;;;;;;;;;;20.30;99.90;;;;;;5017617;28;19944;-90
2022/08/27 10:34:42;;;;;;;;;;;20.30;99.90;;;;;;5013553;28;19921;-89
2022/08/27 10:37:19;;;;;;;;;;;20.40;99.90;;;;;;5032649;28;19928;-92
2022/08/27 10:39:50;;;;;;;;;;;20.40;99.90;;;;;;5018749;28;20288;-87
2022/08/27 10:42:16;;;;;;;;;;;20.50;99.90;;;;;;5034670;28;19932;-90
2022/08/27 10:45:13;;;;;;;;;;;20.60;99.90;;;;;;5034623;28;19920;-89
2022/08/27 10:48:02;;;;;;;;;;;20.70;99.90;;;;;;4990647;28;19928;-86
2022/08/27 10:50:33;;;;;;;;;;;20.70;99.90;;;;;;5032354;28;19921;-87
2022/08/27 10:53:07;;;;;;;;;;;20.60;99.90;;;;;;5026361;28;19921;-84
2022/08/27 10:55:37;;;;;;;;;;;20.60;99.90;;;;;;5015210;28;19921;-88
2022/08/27 10:58:21;;;;;;;;;;;20.50;99.90;;;;;;5015732;28;20012;-88
2022/08/27 11:00:59;;;;;;;;;;;20.60;99.90;;;;;;5002349;28;19922;-88
2022/08/27 11:03:47;;;;;;;;;;;20.50;99.90;;;;;;5017122;28;19921;-89
2022/08/27 11:06:19;;;;;;;;;;;20.50;99.90;;;;;;5008718;28;20432;-87
2022/08/27 11:08:48;;;;;;;;;;;20.50;99.90;;;;;;5014282;28;20448;-90
2022/08/27 11:11:25;;;;;;;;;;;20.50;99.90;;;;;;5034934;28;19952;-87
2022/08/27 11:13:52;;;;;;;;;;;20.60;99.90;;;;;;5014259;28;19956;-85
2022/08/27 11:16:22;;;;;;;;;;;20.70;99.90;;;;;;5029814;28;19921;-88
2022/08/27 11:18:50;;;;;;;;;;;20.70;99.90;;;;;;5049286;28;20016;-87
2022/08/27 11:21:21;;;;;;;;;;;20.70;99.90;;;;;;5016329;28;20031;-84
2022/08/27 11:23:49;;;;;;;;;;;20.70;99.90;;;;;;5032957;28;19920;-85
2022/08/27 11:26:15;;;;;;;;;;;20.70;99.90;;;;;;5054924;28;19905;-89
2022/08/27 11:29:00;;;;;;;;;;;20.70;99.90;;;;;;5051170;28;19921;-87
2022/08/27 11:31:35;;;;;;;;;;;20.80;99.90;;;;;;5029347;28;19929;-88
2022/08/27 11:34:08;;;;;;;;;;;20.90;99.90;;;;;;5033942;28;19967;-93
2022/08/27 11:36:33;;;;;;;;;;;21.00;99.90;;;;;;5018611;28;19971;-90
2022/08/27 11:39:18;;;;;;;;;;;21.10;99.90;;;;;;5014997;28;19971;-89
2022/08/27 11:41:43;;;;;;;;;;;21.10;99.90;;;;;;5014914;28;19925;-90
2022/08/27 11:44:09;;;;;;;;;;;21.20;99.90;;;;;;5042993;28;19924;-91
2022/08/27 11:46:41;;;;;;;;;;;21.10;99.90;;;;;;5033961;28;20512;-93
2022/08/27 11:49:07;;;;;;;;;;;21.10;99.90;;;;;;5016245;28;19924;-89
2022/08/27 11:51:34;;;;;;;;;;;21.10;99.90;;;;;;5014928;28;19924;-86
2022/08/27 11:54:06;;;;;;;;;;;21.10;99.90;;;;;;5019996;28;20015;-83
2022/08/27 11:56:35;;;;;;;;;;;21.00;99.90;;;;;;5032843;28;20031;-83
2022/08/27 11:59:17;;;;;;;;;;;21.00;99.90;;;;;;5049517;28;19925;-87
2022/08/27 12:01:44;;;;;;;;;;;20.90;99.90;;;;;;5032289;28;19929;-92
2022/08/27 12:04:18;;;;;;;;;;;20.90;99.90;;;;;;5031366;28;19925;-87
2022/08/27 12:06:48;;;;;;;;;;;21.00;99.90;;;;;;5033100;28;19929;-86
2022/08/27 12:09:16;;;;;;;;;;;21.10;99.90;;;;;;5013920;28;20004;-87
2022/08/27 12:11:45;;;;;;;;;;;21.20;99.90;;;;;;5010059;28;19991;-87
2022/08/27 12:14:19;;;;;;;;;;;21.20;99.90;;;;;;5014434;28;19975;-87
2022/08/27 12:17:03;;;;;;;;;;;21.30;99.90;;;;;;5030733;28;19928;-85
2022/08/27 12:19:41;;;;;;;;;;;21.50;99.90;;;;;;5014480;28;19972;-86
2022/08/27 12:22:13;;;;;;;;;;;21.60;99.90;;;;;;5033211;28;20308;-88
2022/08/27 12:24:39;;;;;;;;;;;21.60;99.80;;;;;;5019000;28;19924;-89
2022/08/27 12:27:20;;;;;;;;;;;21.60;99.60;;;;;;5039889;28;20004;-88
2022/08/27 12:29:50;;;;;;;;;;;21.50;99.70;;;;;;5028342;28;19928;-86
2022/08/27 12:32:28;;;;;;;;;;;21.50;99.70;;;;;;5013131;28;19925;-87
2022/08/27 12:34:58;;;;;;;;;;;21.50;99.90;;;;;;5031785;28;20000;-87
2022/08/27 12:37:26;;;;;;;;;;;21.70;99.80;;;;;;5015270;28;20024;-86
2022/08/27 12:39:53;;;;;;;;;;;21.70;99.20;;;;;;5009624;28;20099;-89
2022/08/27 12:42:20;;;;;;;;;;;21.80;99.00;;;;;;5012285;28;19971;-87
2022/08/27 12:44:46;;;;;;;;;;;21.70;98.40;;;;;;5029682;28;19929;-90
2022/08/27 12:47:14;;;;;;;;;;;21.70;98.60;;;;;;5015364;28;20304;-90
2022/08/27 12:49:48;;;;;;;;;;;21.70;98.80;;;;;;5033507;28;20377;-89
2022/08/27 12:52:19;;;;;;;;;;;21.80;98.80;;;;;;5021677;28;19928;-90
2022/08/27 12:55:00;;;;;;;;;;;22.00;98.30;;;;;;5014381;28;19921;-92
2022/08/27 12:57:55;;;;;;;;;;;22.00;98.40;;;;;;5029364;28;20007;-85
2022/08/27 13:00:21;;;;;;;;;;;22.00;98.60;;;;;;5017719;28;19905;-90
2022/08/27 13:02:53;;;;;;;;;;;22.00;98.60;;;;;;5044581;28;19972;-88
2022/08/27 13:05:20;;;;;;;;;;;22.10;98.80;;;;;;5015445;28;20520;-90
2022/08/27 13:07:46;;;;;;;;;;;22.20;98.80;;;;;;5032654;28;19921;-89
2022/08/27 13:10:32;;;;;;;;;;;22.30;98.70;;;;;;5032150;28;20027;-87
2022/08/27 13:13:01;;;;;;;;;;;22.50;98.30;;;;;;5008934;28;20376;-85
2022/08/27 13:15:26;;;;;;;;;;;22.50;98.70;;;;;;5035362;28;19929;-88
2022/08/27 13:17:52;;;;;;;;;;;22.70;98.20;;;;;;5029651;28;20410;-85
2022/08/27 13:20:22;;;;;;;;;;;22.80;98.20;;;;;;5028808;28;19987;-84
2022/08/27 13:22:48;;;;;;;;;;;22.80;97.70;;;;;;5012633;28;19929;-83
2022/08/27 13:25:24;;;;;;;;;;;22.90;97.50;;;;;;5029218;28;19990;-84
2022/08/27 13:27:55;;;;;;;;;;;22.90;97.20;;;;;;5018613;28;19955;-82
2022/08/27 13:30:21;;;;;;;;;;;22.80;96.60;;;;;;5011819;28;19987;-84
2022/08/27 13:32:47;;;;;;;;;;;22.70;96.50;;;;;;5028899;28;19927;-85
2022/08/27 13:35:14;;;;;;;;;;;22.60;96.60;;;;;;5031044;28;19920;-84
2022/08/27 13:37:43;;;;;;;;;;;22.50;96.60;;;;;;5036201;28;19940;-83
2022/08/27 13:40:09;;;;;;;;;;;22.60;96.60;;;;;;5035042;28;20412;-83
2022/08/27 13:42:38;;;;;;;;;;;22.70;96.60;;;;;;5029611;28;19956;-85
2022/08/27 13:45:04;;;;;;;;;;;22.80;96.50;;;;;;5011981;28;20701;-85
2022/08/27 13:47:38;;;;;;;;;;;22.80;96.50;;;;;;5012311;28;20015;-81
2022/08/27 13:50:11;;;;;;;;;;;22.70;96.40;;;;;;5008355;28;19925;-80
2022/08/27 13:54:11;;;;;;;;;;;22.70;96.40;;;;;;5011137;28;19921;-81
2022/08/27 13:55:24;;;;;;;;;;;22.60;96.70;;;;;;5020536;28;20396;-80
2022/08/27 13:57:50;;;;;;;;;;;22.60;96.70;;;;;;5011779;28;19979;-81
2022/08/27 14:00:18;;;;;;;;;;;22.70;96.80;;;;;;5027836;28;19925;-81
2022/08/27 14:02:46;;;;;;;;;;;22.80;96.70;;;;;;5038454;28;20391;-80
2022/08/27 14:05:28;;;;;;;;;;;22.90;96.80;;;;;;5044751;28;19944;-80
2022/08/27 14:08:21;;;;;;;;;;;23.00;97.20;;;;;;5018633;28;19928;-80
2022/08/27 14:10:58;;;;;;;;;;;23.10;96.70;;;;;;5024686;28;19971;-82
2022/08/27 14:13:24;;;;;;;;;;;22.90;96.60;;;;;;5034643;28;20007;-81
2022/08/27 14:15:52;;;;;;;;;;;22.80;96.40;;;;;;5049229;28;19925;-81
2022/08/27 14:18:29;;;;;;;;;;;22.60;96.30;;;;;;5037621;28;19948;-79
2022/08/27 14:20:55;;;;;;;;;;;22.40;96.70;;;;;;5028336;28;20534;-79
2022/08/27 14:23:22;;;;;;;;;;;22.30;97.00;;;;;;5031424;28;20439;-79
2022/08/27 14:25:49;;;;;;;;;;;22.20;97.10;;;;;;5014372;28;19921;-79
2022/08/27 14:28:14;;;;;;;;;;;22.10;97.00;;;;;;5046722;28;19983;-78
2022/08/27 14:30:40;;;;;;;;;;;22.00;97.20;;;;;;5029224;28;19921;-78